createdAt,value
2018-02-25T00:01:08.209Z,99.90
2018-02-25T00:03:35.716Z,99.70
2018-02-25T00:06:03.225Z,99.40
2018-02-25T00:08:30.767Z,99.90
2018-02-25T00:10:58.259Z,99.70
2018-02-25T00:13:26.599Z,99.90
2018-02-25T00:15:54.881Z,99.90
2018-02-25T00:18:22.370Z,99.90
2018-02-25T00:20:49.897Z,99.90
2018-02-25T00:23:17.387Z,99.90
2018-02-25T00:25:44.915Z,99.90
2018-02-25T00:28:13.183Z,99.90
2018-02-25T00:30:40.683Z,99.90
2018-02-25T00:33:08.304Z,99.90
2018-02-25T00:35:36.035Z,99.90
2018-02-25T00:38:04.326Z,99.90
2018-02-25T00:40:32.627Z,99.90
2018-02-25T00:43:00.154Z,99.90
2018-02-25T00:45:28.427Z,99.90
2018-02-25T00:47:56.707Z,99.90
2018-02-25T00:50:25.017Z,99.90
2018-02-25T00:52:52.517Z,99.90
2018-02-25T00:55:20.084Z,99.90
2018-02-25T00:57:48.364Z,99.90
2018-02-25T01:00:16.641Z,99.90
2018-02-25T01:02:44.941Z,99.90
2018-02-25T01:05:12.461Z,99.90
2018-02-25T01:07:39.985Z,99.90
2018-02-25T01:10:07.489Z,99.90
2018-02-25T01:12:35.767Z,99.90
2018-02-25T01:15:04.090Z,99.90
2018-02-25T01:17:31.601Z,99.90
2018-02-25T01:19:59.869Z,99.90
2018-02-25T01:22:28.164Z,99.90
2018-02-25T01:24:55.748Z,99.90
2018-02-25T01:27:23.250Z,99.90
2018-02-25T01:29:50.765Z,99.90
2018-02-25T01:32:18.260Z,99.90
2018-02-25T01:34:45.784Z,99.90
2018-02-25T01:37:13.268Z,99.90
2018-02-25T01:39:40.765Z,99.90
2018-02-25T01:42:08.280Z,99.90
2018-02-25T01:44:35.791Z,99.90
2018-02-25T01:47:03.331Z,99.90
2018-02-25T01:49:30.834Z,99.90
2018-02-25T01:51:58.362Z,99.90
2018-02-25T01:54:25.872Z,99.90
2018-02-25T01:56:54.151Z,99.90
2018-02-25T01:59:21.661Z,99.90
2018-02-25T02:01:49.179Z,99.90
2018-02-25T02:04:16.710Z,99.90
2018-02-25T02:06:44.199Z,99.90
2018-02-25T02:09:12.467Z,99.90
2018-02-25T02:11:40.737Z,99.90
2018-02-25T02:14:09.119Z,99.90
2018-02-25T02:16:36.631Z,99.90
2018-02-25T02:19:04.139Z,99.90
2018-02-25T02:21:31.643Z,99.90
2018-02-25T02:23:59.147Z,99.90
2018-02-25T02:26:27.418Z,99.90
2018-02-25T02:28:55.808Z,99.90
2018-02-25T02:31:23.332Z,99.90
2018-02-25T02:33:50.851Z,99.90
2018-02-25T02:36:18.377Z,99.90
2018-02-25T02:38:45.942Z,99.90
2018-02-25T02:41:13.498Z,99.90
2018-02-25T02:43:41.001Z,99.90
2018-02-25T02:46:08.516Z,99.90
2018-02-25T02:48:36.025Z,99.90
2018-02-25T02:51:03.545Z,99.90
2018-02-25T02:53:31.063Z,99.90
2018-02-25T02:55:59.331Z,99.90
2018-02-25T02:58:27.738Z,99.90
2018-02-25T03:00:55.242Z,99.90
2018-02-25T03:03:22.782Z,99.90
2018-02-25T03:05:50.315Z,99.90
2018-02-25T03:08:17.866Z,99.90
2018-02-25T03:10:45.389Z,99.90
2018-02-25T03:13:13.656Z,99.90
2018-02-25T03:15:41.165Z,99.90
2018-02-25T03:18:08.678Z,99.90
2018-02-25T03:20:36.183Z,99.90
2018-02-25T03:23:03.696Z,99.90
2018-02-25T03:25:31.960Z,99.90
2018-02-25T03:27:59.479Z,99.90
2018-02-25T03:30:26.988Z,99.90
2018-02-25T03:32:54.527Z,99.90
2018-02-25T03:35:22.040Z,99.90
2018-02-25T03:37:49.581Z,99.90
2018-02-25T03:40:17.083Z,99.90
2018-02-25T03:42:44.587Z,99.90
2018-02-25T03:45:12.981Z,99.90
2018-02-25T03:47:40.545Z,99.90
2018-02-25T03:50:08.090Z,99.90
2018-02-25T03:52:35.601Z,99.90
2018-02-25T03:55:03.106Z,99.90
2018-02-25T03:57:30.657Z,99.90
2018-02-25T03:59:58.213Z,99.90
2018-02-25T04:02:25.721Z,99.90
2018-02-25T04:04:53.330Z,99.90
2018-02-25T04:07:20.886Z,99.90
2018-02-25T04:09:48.406Z,99.90
2018-02-25T04:12:16.023Z,99.90
2018-02-25T04:14:43.521Z,99.90
2018-02-25T04:17:11.033Z,99.90
2018-02-25T04:19:38.532Z,99.90
2018-02-25T04:22:06.131Z,99.90
2018-02-25T04:24:33.637Z,99.90
2018-02-25T04:27:01.136Z,99.90
2018-02-25T04:29:29.408Z,99.90
2018-02-25T04:31:57.671Z,99.90
2018-02-25T04:34:26.066Z,99.90
2018-02-25T04:36:53.585Z,99.90
2018-02-25T04:39:21.076Z,99.90
2018-02-25T04:41:49.353Z,99.90
2018-02-25T04:44:17.625Z,99.90
2018-02-25T04:46:45.917Z,99.90
2018-02-25T04:49:13.415Z,99.90
2018-02-25T04:51:40.915Z,99.90
2018-02-25T04:54:08.446Z,99.90
2018-02-25T04:56:35.948Z,99.90
2018-02-25T04:59:03.464Z,99.90
2018-02-25T05:01:31.728Z,99.90
2018-02-25T05:03:59.236Z,99.90
2018-02-25T05:06:26.793Z,99.90
2018-02-25T05:08:54.362Z,99.90
2018-02-25T05:11:21.893Z,99.90
2018-02-25T05:13:49.422Z,99.90
2018-02-25T05:16:16.933Z,99.90
2018-02-25T05:18:44.447Z,99.90
2018-02-25T05:21:12.718Z,99.90
2018-02-25T05:23:40.991Z,99.90
2018-02-25T05:26:09.277Z,99.90
2018-02-25T05:28:37.553Z,99.90
2018-02-25T05:31:06.017Z,99.90
2018-02-25T05:33:34.295Z,99.90
2018-02-25T05:36:01.792Z,99.90
2018-02-25T05:38:29.302Z,99.90
2018-02-25T05:40:56.815Z,99.90
2018-02-25T05:43:24.314Z,99.90
2018-02-25T05:45:51.905Z,99.90
2018-02-25T05:48:19.453Z,99.90
2018-02-25T05:50:47.741Z,99.90
2018-02-25T05:53:15.248Z,99.90
2018-02-25T05:55:42.861Z,99.90
2018-02-25T05:58:10.363Z,99.90
2018-02-25T06:00:37.901Z,99.90
2018-02-25T06:03:05.390Z,99.90
2018-02-25T06:05:32.998Z,99.90
2018-02-25T06:08:00.545Z,99.90
2018-02-25T06:10:28.106Z,99.90
2018-02-25T06:12:55.600Z,99.90
2018-02-25T06:15:23.113Z,99.90
2018-02-25T06:17:50.630Z,99.90
2018-02-25T06:20:18.121Z,99.90
2018-02-25T06:22:45.638Z,99.90
2018-02-25T06:25:13.138Z,99.90
2018-02-25T06:27:40.674Z,99.90
2018-02-25T06:30:20.605Z,99.90
2018-02-25T06:32:48.543Z,99.90
2018-02-25T06:35:16.052Z,99.90
2018-02-25T06:37:44.311Z,99.90
2018-02-25T06:40:11.836Z,99.90
2018-02-25T06:42:39.367Z,99.90
2018-02-25T06:45:06.896Z,99.90
2018-02-25T06:47:35.171Z,99.90
2018-02-25T06:50:02.709Z,99.90
2018-02-25T06:52:30.319Z,99.90
2018-02-25T06:54:57.826Z,99.90
2018-02-25T06:57:25.365Z,99.90
2018-02-25T06:59:54.405Z,99.90
2018-02-25T07:02:21.950Z,99.90
2018-02-25T07:04:50.680Z,99.90
2018-02-25T07:07:18.313Z,99.90
2018-02-25T07:09:45.838Z,99.90
2018-02-25T07:12:14.153Z,99.90
2018-02-25T07:14:41.799Z,99.90
2018-02-25T07:17:09.308Z,99.90
2018-02-25T07:19:36.845Z,99.90
2018-02-25T07:22:04.396Z,99.90
2018-02-25T07:24:32.633Z,99.90
2018-02-25T07:27:00.910Z,99.90
2018-02-25T07:29:29.201Z,99.90
2018-02-25T07:31:56.711Z,99.90
2018-02-25T07:34:24.222Z,99.90
2018-02-25T07:36:51.733Z,99.90
2018-02-25T07:39:20.045Z,99.90
2018-02-25T07:41:47.568Z,99.90
2018-02-25T07:44:15.907Z,99.90
2018-02-25T07:46:43.453Z,99.90
2018-02-25T07:49:10.968Z,98.20
2018-02-25T07:51:39.248Z,95.40
2018-02-25T07:54:07.537Z,97.00
2018-02-25T07:56:35.796Z,95.00
2018-02-25T07:59:04.070Z,92.20
2018-02-25T08:01:32.358Z,92.20
2018-02-25T08:03:59.873Z,92.20
2018-02-25T08:06:27.394Z,93.90
2018-02-25T08:08:54.932Z,93.60
2018-02-25T08:11:22.429Z,93.70
2018-02-25T08:13:49.958Z,92.00
2018-02-25T08:16:17.488Z,91.10
2018-02-25T08:18:45.764Z,94.20
2018-02-25T08:21:14.038Z,93.80
2018-02-25T08:23:42.361Z,94.20
2018-02-25T08:26:09.873Z,94.10
2018-02-25T08:28:38.162Z,93.50
2018-02-25T08:31:05.725Z,93.50
2018-02-25T08:33:33.232Z,94.00
2018-02-25T08:36:00.737Z,91.20
2018-02-25T08:38:28.255Z,92.10
2018-02-25T08:40:55.757Z,92.10
2018-02-25T08:43:23.270Z,94.20
2018-02-25T08:45:50.885Z,93.20
2018-02-25T08:48:18.371Z,91.40
2018-02-25T08:50:46.899Z,91.00
2018-02-25T08:53:14.395Z,90.80
2018-02-25T08:55:41.904Z,93.30
2018-02-25T08:58:10.190Z,92.80
2018-02-25T09:00:37.697Z,92.80
2018-02-25T09:03:05.306Z,92.00
2018-02-25T09:05:32.998Z,91.60
2018-02-25T09:08:00.745Z,92.60
2018-02-25T09:10:28.258Z,92.30
2018-02-25T09:12:56.558Z,92.50
2018-02-25T09:15:24.066Z,92.20
2018-02-25T09:17:51.575Z,91.70
2018-02-25T09:20:19.105Z,91.90
2018-02-25T09:22:46.620Z,92.50
2018-02-25T09:25:14.254Z,89.90
2018-02-25T09:27:41.796Z,90.80
2018-02-25T09:30:10.064Z,88.00
2018-02-25T09:32:37.591Z,87.30
2018-02-25T09:35:05.088Z,87.40
2018-02-25T09:37:32.647Z,85.80
2018-02-25T09:40:00.144Z,83.80
2018-02-25T09:42:27.759Z,85.10
2018-02-25T09:44:56.425Z,81.10
2018-02-25T09:47:24.705Z,80.60
2018-02-25T09:49:52.977Z,75.10
2018-02-25T09:52:21.255Z,74.50
2018-02-25T09:54:49.527Z,76.70
2018-02-25T09:57:17.807Z,79.80
2018-02-25T09:59:46.085Z,75.30
2018-02-25T10:02:14.361Z,74.10
2018-02-25T10:04:42.627Z,68.70
2018-02-25T10:07:10.916Z,68.10
2018-02-25T10:09:38.411Z,68.10
2018-02-25T10:12:05.933Z,69.80
2018-02-25T10:14:33.465Z,73.20
2018-02-25T10:17:00.956Z,65.10
2018-02-25T10:19:28.556Z,64.00
2018-02-25T10:21:56.046Z,67.80
2018-02-25T10:24:24.319Z,68.70
2018-02-25T10:26:52.666Z,66.70
2018-02-25T10:29:20.193Z,66.70
2018-02-25T10:31:47.702Z,58.70
2018-02-25T10:34:15.284Z,63.80
2018-02-25T10:36:42.786Z,58.90
2018-02-25T10:39:10.286Z,61.30
2018-02-25T10:41:38.671Z,62.70
2018-02-25T10:44:06.942Z,61.40
2018-02-25T10:46:35.199Z,57.00
2018-02-25T10:49:02.850Z,57.50
2018-02-25T10:51:30.375Z,58.30
2018-02-25T10:53:57.874Z,59.10
2018-02-25T10:56:26.155Z,51.60
2018-02-25T10:58:54.450Z,50.50
2018-02-25T11:01:21.945Z,50.40
2018-02-25T11:03:49.552Z,54.30
2018-02-25T11:06:17.808Z,53.90
2018-02-25T11:08:45.322Z,54.00
2018-02-25T11:11:12.851Z,55.90
2018-02-25T11:13:40.340Z,53.00
2018-02-25T11:16:07.873Z,51.60
2018-02-25T11:18:35.384Z,50.80
2018-02-25T11:21:02.878Z,51.30
2018-02-25T11:23:30.379Z,52.70
2018-02-25T11:25:57.998Z,52.60
2018-02-25T11:28:25.502Z,54.60
2018-02-25T11:30:53.135Z,49.40
2018-02-25T11:33:20.635Z,51.50
2018-02-25T11:35:48.127Z,51.20
2018-02-25T11:38:15.671Z,52.10
2018-02-25T11:40:43.934Z,52.80
2018-02-25T11:43:12.222Z,48.80
2018-02-25T11:45:39.721Z,48.70
2018-02-25T11:48:07.225Z,54.40
2018-02-25T11:50:35.491Z,52.50
2018-02-25T11:53:03.062Z,52.40
2018-02-25T11:55:31.345Z,57.90
2018-02-25T11:57:58.831Z,57.90
2018-02-25T12:00:26.338Z,54.30
2018-02-25T12:02:53.840Z,55.90
2018-02-25T12:05:21.421Z,55.50
2018-02-25T12:07:48.946Z,58.00
2018-02-25T12:10:16.431Z,57.40
2018-02-25T12:12:44.039Z,52.00
2018-02-25T12:15:12.286Z,55.00
2018-02-25T12:17:39.871Z,54.90
2018-02-25T12:20:08.144Z,53.80
2018-02-25T12:22:36.407Z,54.20
2018-02-25T12:25:03.984Z,54.30
2018-02-25T12:27:32.288Z,55.70
2018-02-25T12:29:59.945Z,56.30
2018-02-25T12:32:27.487Z,56.40
2018-02-25T12:34:54.992Z,55.60
2018-02-25T12:37:22.514Z,58.30
2018-02-25T12:39:50.029Z,60.10
2018-02-25T12:42:18.322Z,60.10
2018-02-25T12:44:46.608Z,64.90
2018-02-25T12:47:14.113Z,64.70
2018-02-25T12:49:41.605Z,62.60
2018-02-25T12:52:09.882Z,68.30
2018-02-25T12:54:37.371Z,68.00
2018-02-25T12:57:04.860Z,62.10
2018-02-25T12:59:32.375Z,62.50
2018-02-25T13:01:59.877Z,62.40
2018-02-25T13:04:27.391Z,63.40
2018-02-25T13:06:55.743Z,64.90
2018-02-25T13:09:24.116Z,73.20
2018-02-25T13:11:52.448Z,72.90
2018-02-25T13:14:20.081Z,71.80
2018-02-25T13:16:47.604Z,68.50
2018-02-25T13:19:15.871Z,63.60
2018-02-25T13:21:44.148Z,69.50
2018-02-25T13:24:12.404Z,63.80
2018-02-25T13:26:39.925Z,63.60
2018-02-25T13:29:07.427Z,67.00
2018-02-25T13:31:34.919Z,67.00
2018-02-25T13:34:02.439Z,65.20
2018-02-25T13:36:30.028Z,75.30
2018-02-25T13:38:57.612Z,63.90
2018-02-25T13:41:35.016Z,66.30
2018-02-25T13:44:02.529Z,62.20
2018-02-25T13:46:30.050Z,65.10
2018-02-25T13:48:57.570Z,69.80
2018-02-25T13:51:25.055Z,61.70
2018-02-25T13:53:52.553Z,69.10
2018-02-25T13:56:20.051Z,69.40
2018-02-25T13:58:47.556Z,63.90
2018-02-25T14:01:15.819Z,64.40
2018-02-25T14:03:43.330Z,64.40
2018-02-25T14:06:10.872Z,62.00
2018-02-25T14:08:38.370Z,59.40
2018-02-25T14:11:05.874Z,69.60
2018-02-25T14:13:33.372Z,67.80
2018-02-25T14:16:00.870Z,63.90
2018-02-25T14:18:29.131Z,61.70
2018-02-25T14:20:57.430Z,62.80
2018-02-25T14:23:25.691Z,67.60
2018-02-25T14:25:53.960Z,70.00
2018-02-25T14:28:22.261Z,66.70
2018-02-25T14:30:50.805Z,66.60
2018-02-25T14:33:18.307Z,69.00
2018-02-25T14:35:45.827Z,65.30
2018-02-25T14:38:14.185Z,65.10
2018-02-25T14:40:41.706Z,64.70
2018-02-25T14:43:09.212Z,59.00
2018-02-25T14:45:36.702Z,66.60
2018-02-25T14:48:04.215Z,61.80
2018-02-25T14:50:31.712Z,60.90
2018-02-25T14:52:59.219Z,62.50
2018-02-25T14:55:26.738Z,65.20
2018-02-25T14:57:54.244Z,71.40
2018-02-25T15:00:21.835Z,65.10
2018-02-25T15:02:50.113Z,65.60
2018-02-25T15:05:17.642Z,65.50
2018-02-25T15:07:45.944Z,64.10
2018-02-25T15:10:13.509Z,64.00
2018-02-25T15:12:41.039Z,60.60
2018-02-25T15:15:08.547Z,59.90
2018-02-25T15:17:36.061Z,62.50
2018-02-25T15:20:04.331Z,63.40
2018-02-25T15:22:32.660Z,67.30
2018-02-25T15:25:00.198Z,67.20
2018-02-25T15:27:27.708Z,66.60
2018-02-25T15:29:55.305Z,70.50
2018-02-25T15:32:22.811Z,71.10
2018-02-25T15:34:50.302Z,71.10
2018-02-25T15:37:18.592Z,66.30
2018-02-25T15:39:46.107Z,66.30
2018-02-25T15:42:13.633Z,68.40
2018-02-25T15:44:41.155Z,70.20
2018-02-25T15:47:08.651Z,66.60
2018-02-25T15:49:36.221Z,68.90
2018-02-25T15:52:03.708Z,66.40
2018-02-25T15:54:31.970Z,66.60
2018-02-25T15:57:00.270Z,67.20
2018-02-25T15:59:27.775Z,67.10
2018-02-25T16:01:55.388Z,68.80
2018-02-25T16:04:23.647Z,71.20
2018-02-25T16:06:51.964Z,71.40
2018-02-25T16:09:19.493Z,71.30
2018-02-25T16:11:47.766Z,73.00
2018-02-25T16:14:15.300Z,72.70
2018-02-25T16:16:42.897Z,71.90
2018-02-25T16:19:10.415Z,73.50
2018-02-25T16:21:37.907Z,73.60
2018-02-25T16:24:05.459Z,69.50
2018-02-25T16:26:32.962Z,69.80
2018-02-25T16:29:00.538Z,73.00
2018-02-25T16:31:28.020Z,76.20
2018-02-25T16:33:56.429Z,72.10
2018-02-25T16:36:23.945Z,72.00
2018-02-25T16:38:52.225Z,76.50
2018-02-25T16:41:20.505Z,78.40
2018-02-25T16:43:48.775Z,76.60
2018-02-25T16:46:17.035Z,75.70
2018-02-25T16:48:44.591Z,75.60
2018-02-25T16:51:12.125Z,80.20
2018-02-25T16:53:39.679Z,81.40
2018-02-25T16:56:07.164Z,75.20
2018-02-25T16:58:35.440Z,75.80
2018-02-25T17:01:02.960Z,75.80
2018-02-25T17:03:30.537Z,80.70
2018-02-25T17:05:58.022Z,80.30
2018-02-25T17:08:26.283Z,82.20
2018-02-25T17:10:53.802Z,82.30
2018-02-25T17:13:21.319Z,81.70
2018-02-25T17:15:48.835Z,82.90
2018-02-25T17:18:16.489Z,84.20
2018-02-25T17:20:43.980Z,81.90
2018-02-25T17:23:12.319Z,84.70
2018-02-25T17:25:39.858Z,84.10
2018-02-25T17:28:07.445Z,88.00
2018-02-25T17:30:34.921Z,85.30
2018-02-25T17:33:03.216Z,87.20
2018-02-25T17:35:30.725Z,87.20
2018-02-25T17:37:58.227Z,87.80
2018-02-25T17:40:26.513Z,85.80
2018-02-25T17:42:54.029Z,85.80
2018-02-25T17:45:21.543Z,87.30
2018-02-25T17:47:49.075Z,87.60
2018-02-25T17:50:17.350Z,87.00
2018-02-25T17:52:45.651Z,89.90
2018-02-25T17:55:24.373Z,89.70
2018-02-25T17:57:40.707Z,88.60
2018-02-25T18:00:09.738Z,88.50
2018-02-25T18:02:37.313Z,88.40
2018-02-25T18:05:04.829Z,88.10
2018-02-25T18:07:33.203Z,91.00
2018-02-25T18:10:00.707Z,91.00
2018-02-25T18:12:28.256Z,89.70
2018-02-25T18:14:55.768Z,91.40
2018-02-25T18:17:23.263Z,90.80
2018-02-25T18:19:50.782Z,89.50
2018-02-25T18:22:18.299Z,90.60
2018-02-25T18:24:45.836Z,89.30
2018-02-25T18:27:13.398Z,87.90
2018-02-25T18:29:40.929Z,89.80
2018-02-25T18:32:09.219Z,90.40
2018-02-25T18:34:36.779Z,90.40
2018-02-25T18:37:04.355Z,91.00
2018-02-25T18:39:31.881Z,91.20
2018-02-25T18:42:00.177Z,91.60
2018-02-25T18:44:27.913Z,91.60
2018-02-25T18:46:56.195Z,91.50
2018-02-25T18:49:24.501Z,92.30
2018-02-25T18:51:52.003Z,92.30
2018-02-25T18:54:19.559Z,91.80
2018-02-25T18:56:48.567Z,92.70
2018-02-25T18:59:16.064Z,92.70
2018-02-25T19:01:43.610Z,91.40
2018-02-25T19:04:11.120Z,91.40
2018-02-25T19:06:38.762Z,91.80
2018-02-25T19:09:06.282Z,92.30
2018-02-25T19:11:33.824Z,93.00
2018-02-25T19:14:02.127Z,94.30
2018-02-25T19:16:29.643Z,94.20
2018-02-25T19:18:57.918Z,99.90
2018-02-25T19:21:26.201Z,99.90
2018-02-25T19:23:54.508Z,96.60
2018-02-25T19:26:22.037Z,96.20
2018-02-25T19:28:50.333Z,85.30
2018-02-25T19:31:17.824Z,85.30
2018-02-25T19:33:45.361Z,91.70
2018-02-25T19:36:18.416Z,88.50
2018-02-25T19:38:51.681Z,91.80
2018-02-25T19:41:25.722Z,94.20
2018-02-25T19:43:53.244Z,94.10
2018-02-25T19:46:20.796Z,95.20
2018-02-25T19:48:48.326Z,95.30
2018-02-25T19:51:15.880Z,95.50
2018-02-25T19:53:43.407Z,96.00
2018-02-25T19:56:10.931Z,96.10
2018-02-25T19:58:38.454Z,96.20
2018-02-25T20:01:05.982Z,96.30
2018-02-25T20:03:33.510Z,96.00
2018-02-25T20:06:01.816Z,96.70
2018-02-25T20:08:29.339Z,96.60
2018-02-25T20:10:56.831Z,96.80
2018-02-25T20:13:25.121Z,96.80
2018-02-25T20:15:52.648Z,97.30
2018-02-25T20:18:20.238Z,98.10
2018-02-25T20:20:47.770Z,97.90
2018-02-25T20:23:26.441Z,98.20
2018-02-25T20:25:53.951Z,98.30
2018-02-25T20:28:21.458Z,99.20
2018-02-25T20:30:48.985Z,98.90
2018-02-25T20:33:16.511Z,99.10
2018-02-25T20:35:44.784Z,99.40
2018-02-25T20:38:13.063Z,99.50
2018-02-25T20:40:41.352Z,99.90
2018-02-25T20:43:08.852Z,99.90
2018-02-25T20:45:36.359Z,99.20
2018-02-25T20:48:03.935Z,99.80
2018-02-25T20:50:31.479Z,99.90
2018-02-25T20:52:59.008Z,99.90
2018-02-25T20:55:27.431Z,99.90
2018-02-25T20:57:54.943Z,99.90
2018-02-25T21:00:23.219Z,99.90
2018-02-25T21:02:51.496Z,99.90
2018-02-25T21:05:19.886Z,99.90
2018-02-25T21:07:47.409Z,99.90
2018-02-25T21:10:14.931Z,99.90
2018-02-25T21:12:42.427Z,99.90
2018-02-25T21:15:09.948Z,99.90
2018-02-25T21:17:37.477Z,99.90
2018-02-25T21:20:05.042Z,99.90
2018-02-25T21:22:32.564Z,99.90
2018-02-25T21:25:00.082Z,99.90
2018-02-25T21:27:27.714Z,99.90
2018-02-25T21:29:55.263Z,99.90
2018-02-25T21:32:22.785Z,99.90
2018-02-25T21:34:50.309Z,99.90
2018-02-25T21:37:17.824Z,99.90
2018-02-25T21:39:46.104Z,99.90
2018-02-25T21:42:13.664Z,99.90
2018-02-25T21:44:41.941Z,99.90
2018-02-25T21:47:10.340Z,99.90
2018-02-25T21:49:37.890Z,99.90
2018-02-25T21:52:06.158Z,99.90
2018-02-25T21:54:39.281Z,99.90
2018-02-25T21:57:12.441Z,99.90
2018-02-25T21:59:45.731Z,99.90
2018-02-25T22:02:19.065Z,99.90
2018-02-25T22:04:46.639Z,99.90
2018-02-25T22:07:14.245Z,99.90
2018-02-25T22:09:41.758Z,99.90
2018-02-25T22:12:09.349Z,99.90
2018-02-25T22:14:36.865Z,99.90
2018-02-25T22:17:04.461Z,99.90
2018-02-25T22:19:31.980Z,99.90
2018-02-25T22:21:59.510Z,99.90
2018-02-25T22:24:27.020Z,99.90
2018-02-25T22:26:55.285Z,99.90
2018-02-25T22:29:22.817Z,99.90
2018-02-25T22:31:50.317Z,99.90
2018-02-25T22:34:18.580Z,99.90
2018-02-25T22:36:46.862Z,99.90
2018-02-25T22:39:15.990Z,99.90
2018-02-25T22:41:43.491Z,99.90
2018-02-25T22:44:11.001Z,99.90
2018-02-25T22:46:38.549Z,99.90
2018-02-25T22:49:06.052Z,99.90
2018-02-25T22:51:33.547Z,99.90
2018-02-25T22:54:01.040Z,99.90
2018-02-25T22:56:28.564Z,99.90
2018-02-25T22:58:56.069Z,99.90
2018-02-25T23:01:23.585Z,99.90
2018-02-25T23:03:51.176Z,99.90
2018-02-25T23:06:18.705Z,99.90
2018-02-25T23:08:46.207Z,99.90
2018-02-25T23:11:13.698Z,99.90
2018-02-25T23:13:42.009Z,99.90
2018-02-25T23:16:10.387Z,99.90
2018-02-25T23:18:37.887Z,99.90
2018-02-25T23:21:05.383Z,99.90
2018-02-25T23:23:32.923Z,99.90
2018-02-25T23:26:01.190Z,99.90
2018-02-25T23:28:29.467Z,99.90
2018-02-25T23:30:57.757Z,99.90
2018-02-25T23:33:25.253Z,99.90
2018-02-25T23:35:52.811Z,99.90
2018-02-25T23:38:20.319Z,99.90
2018-02-25T23:40:48.589Z,99.90
2018-02-25T23:43:16.997Z,99.90
2018-02-25T23:45:44.521Z,99.90
2018-02-25T23:48:12.794Z,99.90
2018-02-25T23:50:41.063Z,99.90
2018-02-25T23:53:09.336Z,99.90
2018-02-25T23:55:37.595Z,99.90
2018-02-25T23:58:05.211Z,99.90
